Time;durP1;ratioP1;P1;durP2;ratioP2;P2;SDS_P1;SDS_P2;PMS_P1;PMS_P2;Temp;Humidity;BMP_temperature;BMP_pressure;BME280_temperature;BME280_humidity;BME280_pressure;Samples;Min_cycle;Max_cycle;Signal;HPM_P1;HPM_P2
2022/11/16 00:01:03;;;;;;;9.70;6.30;;;7.90;99.90;;;;;;5027332;28;20477;-58
2022/11/16 00:03:30;;;;;;;9.80;6.60;;;7.90;99.90;;;;;;5023886;28;20505;-58
2022/11/16 00:06:01;;;;;;;8.93;6.63;;;7.90;99.90;;;;;;5026181;28;20437;-57
2022/11/16 00:08:33;;;;;;;8.93;6.20;;;7.90;99.90;;;;;;5029415;28;20421;-58
2022/11/16 00:11:17;;;;;;;10.23;6.77;;;7.90;99.90;;;;;;5020928;28;20536;-58
2022/11/16 00:13:43;;;;;;;9.83;6.60;;;7.90;99.90;;;;;;5029372;28;20516;-58
2022/11/16 00:16:16;;;;;;;11.63;7.57;;;7.90;99.90;;;;;;5027039;28;20526;-57
2022/11/16 00:18:43;;;;;;;12.43;7.40;;;7.90;99.90;;;;;;5022302;28;20685;-58
2022/11/16 00:21:09;;;;;;;11.10;7.20;;;7.90;99.90;;;;;;5026231;28;20458;-58
2022/11/16 00:23:37;;;;;;;10.83;7.83;;;7.90;99.90;;;;;;5021067;28;20971;-58
2022/11/16 00:26:07;;;;;;;10.93;7.73;;;7.90;99.90;;;;;;5023694;28;20183;-57
2022/11/16 00:28:33;;;;;;;12.63;7.47;;;7.80;99.90;;;;;;5023452;28;20422;-59
2022/11/16 00:31:00;;;;;;;13.57;8.40;;;7.80;99.90;;;;;;5034362;28;20812;-57
2022/11/16 00:33:26;;;;;;;15.30;8.20;;;7.80;99.90;;;;;;5024392;28;20192;-56
2022/11/16 00:35:52;;;;;;;12.47;8.77;;;7.80;99.90;;;;;;5023428;28;20520;-58
2022/11/16 00:38:18;;;;;;;13.50;9.33;;;7.80;99.90;;;;;;5026858;28;20793;-57
2022/11/16 00:40:44;;;;;;;15.33;8.67;;;7.80;99.90;;;;;;5036659;28;20473;-59
2022/11/16 00:43:09;;;;;;;13.50;9.00;;;7.80;99.90;;;;;;5034130;28;20661;-57
2022/11/16 00:45:37;;;;;;;14.17;8.93;;;7.80;99.90;;;;;;5028998;28;20180;-59
2022/11/16 00:48:02;;;;;;;13.73;8.37;;;7.90;99.90;;;;;;5035273;28;20823;-58
2022/11/16 00:50:28;;;;;;;12.30;7.80;;;7.90;99.90;;;;;;5020526;28;20454;-57
2022/11/16 00:52:54;;;;;;;12.73;9.00;;;7.90;99.90;;;;;;5026476;28;20234;-57
2022/11/16 00:57:54;;;;;;;12.33;8.10;;;7.90;99.90;;;;;;5000659;28;20199;-62
2022/11/16 01:00:20;;;;;;;16.53;9.50;;;7.90;99.90;;;;;;5008207;28;20418;-59
2022/11/16 01:02:46;;;;;;;10.33;8.40;;;7.90;99.90;;;;;;5015740;28;20185;-59
2022/11/16 01:05:12;;;;;;;11.90;7.93;;;7.90;99.90;;;;;;5002403;28;20647;-61
2022/11/16 01:07:38;;;;;;;14.70;8.23;;;7.90;99.90;;;;;;5002566;28;20761;-59
2022/11/16 01:10:07;;;;;;;11.00;8.30;;;7.90;99.90;;;;;;5009438;28;20871;-60
2022/11/16 01:12:33;;;;;;;15.57;8.40;;;7.90;99.90;;;;;;4992058;28;20424;-60
2022/11/16 01:14:59;;;;;;;14.43;8.90;;;7.90;99.90;;;;;;5007068;28;20479;-59
2022/11/16 01:17:25;;;;;;;12.30;8.43;;;7.90;99.90;;;;;;4986273;28;20292;-61
2022/11/16 01:19:50;;;;;;;15.47;8.70;;;7.90;99.90;;;;;;5008025;28;20172;-60
2022/11/16 01:22:16;;;;;;;13.37;8.70;;;7.90;99.90;;;;;;4994371;28;20533;-60
2022/11/16 01:24:42;;;;;;;11.90;8.13;;;7.90;99.90;;;;;;4992481;28;21855;-60
2022/11/16 01:27:07;;;;;;;14.73;9.20;;;7.90;99.90;;;;;;5004788;28;20235;-60
2022/11/16 01:29:33;;;;;;;12.13;9.07;;;7.90;99.90;;;;;;5005937;28;20187;-60
2022/11/16 01:31:59;;;;;;;17.30;9.37;;;7.90;99.90;;;;;;5008776;28;20229;-60
2022/11/16 01:34:25;;;;;;;15.33;8.80;;;7.90;99.90;;;;;;4996057;28;20284;-60
2022/11/16 01:36:50;;;;;;;11.70;8.33;;;7.90;99.90;;;;;;5007996;28;20208;-59
2022/11/16 01:39:16;;;;;;;15.17;9.20;;;7.90;99.90;;;;;;5009215;28;20460;-60
2022/11/16 01:41:43;;;;;;;13.30;9.10;;;7.90;99.90;;;;;;5011091;28;21878;-60
2022/11/16 01:44:30;;;;;;;14.60;9.70;;;7.90;99.90;;;;;;4990966;28;20567;-60
2022/11/16 01:47:06;;;;;;;18.80;10.33;;;7.90;99.90;;;;;;5002763;28;20458;-59
2022/11/16 01:49:35;;;;;;;21.57;9.33;;;7.90;99.90;;;;;;5003613;28;20455;-61
2022/11/16 01:52:13;;;;;;;14.10;8.97;;;7.80;99.90;;;;;;5004150;28;20486;-59
2022/11/16 01:54:42;;;;;;;15.87;8.80;;;7.90;99.90;;;;;;5000303;28;20896;-58
2022/11/16 01:57:12;;;;;;;14.40;9.10;;;7.90;99.90;;;;;;5005503;28;20462;-59
2022/11/16 01:59:39;;;;;;;12.57;8.63;;;7.90;99.90;;;;;;4991118;28;20413;-59
2022/11/16 02:02:05;;;;;;;10.50;7.97;;;7.80;99.90;;;;;;5006460;28;20713;-59
2022/11/16 02:04:31;;;;;;;12.10;8.07;;;7.90;99.90;;;;;;5003024;28;21134;-61
2022/11/16 02:07:08;;;;;;;12.13;9.10;;;7.90;99.90;;;;;;5004595;28;20734;-60
2022/11/16 02:09:54;;;;;;;14.67;8.93;;;7.90;99.90;;;;;;4998901;28;20191;-61
2022/11/16 02:12:36;;;;;;;12.70;8.30;;;7.80;99.90;;;;;;5000559;28;20530;-59
2022/11/16 02:15:09;;;;;;;11.23;7.57;;;7.90;99.90;;;;;;5012900;28;20462;-60
2022/11/16 02:18:25;;;;;;;10.83;7.40;;;7.90;99.90;;;;;;5003793;28;20448;-59
2022/11/16 02:20:57;;;;;;;10.30;7.33;;;7.90;99.90;;;;;;4910689;29;20550;-59
2022/11/16 02:24:01;;;;;;;11.60;7.20;;;7.90;99.90;;;;;;4987124;28;20539;-58
2022/11/16 02:26:57;;;;;;;8.90;6.10;;;7.90;99.90;;;;;;5008863;28;20458;-59
2022/11/16 02:29:36;;;;;;;9.83;6.10;;;7.90;99.90;;;;;;5012339;28;20517;-59
2022/11/16 02:32:15;;;;;;;11.40;5.90;;;7.90;99.90;;;;;;5007989;28;20931;-59
2022/11/16 02:34:47;;;;;;;14.43;5.80;;;8.00;99.90;;;;;;5013667;28;20454;-62
2022/11/16 02:37:17;;;;;;;8.00;5.70;;;8.00;99.90;;;;;;5011096;28;20969;-61
2022/11/16 02:39:46;;;;;;;5.50;4.20;;;8.00;99.90;;;;;;4998895;28;20496;-60
2022/11/16 02:42:17;;;;;;;8.13;4.90;;;8.10;99.90;;;;;;5009455;28;20415;-59
2022/11/16 02:44:46;;;;;;;6.67;5.20;;;8.10;99.90;;;;;;5011275;28;20856;-60
2022/11/16 02:47:21;;;;;;;9.20;4.70;;;8.10;99.90;;;;;;5008205;28;20462;-60
2022/11/16 02:49:51;;;;;;;7.00;5.10;;;8.10;99.90;;;;;;5008608;28;20445;-60
2022/11/16 02:52:18;;;;;;;6.33;4.43;;;8.20;99.90;;;;;;5009923;28;20474;-60
2022/11/16 02:54:43;;;;;;;6.20;4.37;;;8.20;99.90;;;;;;5005710;28;20462;-59
2022/11/16 02:57:09;;;;;;;4.97;4.17;;;8.20;99.90;;;;;;5007539;28;20522;-60
2022/11/16 02:59:43;;;;;;;4.93;4.20;;;8.20;99.90;;;;;;5009436;28;20259;-60
2022/11/16 03:02:30;;;;;;;4.50;3.73;;;8.30;99.90;;;;;;5006536;28;20165;-60
2022/11/16 03:05:10;;;;;;;4.70;3.67;;;8.30;99.90;;;;;;5005559;28;20446;-60
2022/11/16 03:07:46;;;;;;;5.07;3.80;;;8.30;99.90;;;;;;5014108;28;20450;-59
2022/11/16 03:11:58;;;;;;;3.97;3.57;;;8.30;99.90;;;;;;5013677;28;20426;-60
2022/11/16 03:13:02;;;;;;;6.20;3.70;;;8.30;99.90;;;;;;5009527;28;20431;-60
2022/11/16 03:15:28;;;;;;;4.90;4.10;;;8.40;99.90;;;;;;5004318;28;20504;-60
2022/11/16 03:17:56;;;;;;;6.57;4.03;;;8.40;99.90;;;;;;5008059;28;20490;-61
2022/11/16 03:20:26;;;;;;;6.03;3.90;;;8.40;99.90;;;;;;5008860;28;20431;-60
2022/11/16 03:22:57;;;;;;;5.80;4.33;;;8.40;99.90;;;;;;5007322;28;20424;-60
2022/11/16 03:25:27;;;;;;;4.93;4.10;;;8.40;99.90;;;;;;5011653;28;20407;-60
2022/11/16 03:28:04;;;;;;;5.53;3.97;;;8.40;99.90;;;;;;4999672;28;20521;-60
2022/11/16 03:30:35;;;;;;;5.23;4.10;;;8.40;99.90;;;;;;5003434;28;21155;-59
2022/11/16 03:33:00;;;;;;;6.57;4.30;;;8.40;99.90;;;;;;4988605;28;20957;-60
2022/11/16 03:35:45;;;;;;;4.93;4.00;;;8.40;99.90;;;;;;5007093;28;21018;-61
2022/11/16 03:38:13;;;;;;;6.90;4.90;;;8.40;99.90;;;;;;5012251;28;20635;-59
2022/11/16 03:40:40;;;;;;;7.07;5.20;;;8.50;99.90;;;;;;5010076;28;20430;-60
2022/11/16 03:43:07;;;;;;;4.40;4.00;;;8.50;99.90;;;;;;5010728;28;20960;-60
2022/11/16 03:45:33;;;;;;;7.93;5.60;;;8.50;99.90;;;;;;5009993;28;20454;-60
2022/11/16 03:47:59;;;;;;;7.17;5.10;;;8.50;99.90;;;;;;5007603;28;20815;-60
2022/11/16 03:50:25;;;;;;;5.93;4.50;;;8.50;99.90;;;;;;5002687;28;20509;-60
2022/11/16 03:52:51;;;;;;;5.77;4.83;;;8.50;99.90;;;;;;5002786;28;20517;-60
2022/11/16 03:55:16;;;;;;;6.70;5.67;;;8.50;99.90;;;;;;5008180;28;20203;-59
2022/11/16 03:57:42;;;;;;;7.03;5.57;;;8.50;99.90;;;;;;4996620;28;20209;-60
2022/11/16 04:00:08;;;;;;;6.40;5.70;;;8.50;99.90;;;;;;5009088;28;20555;-59
2022/11/16 04:02:34;;;;;;;12.30;6.00;;;8.50;99.90;;;;;;5005633;28;20251;-56
2022/11/16 04:24:22;;;;;;;6.37;5.20;;;8.50;99.90;;;;;;5007301;28;20437;-60
2022/11/16 04:29:38;;;;;;;7.97;6.03;;;8.60;99.90;;;;;;5000331;28;20446;-61
2022/11/16 04:40:29;;;;;;;6.20;5.27;;;8.50;99.90;;;;;;4995471;28;20427;-59
2022/11/16 04:42:59;;;;;;;6.30;5.30;;;8.50;99.90;;;;;;4986455;28;20523;-59
2022/11/16 04:48:12;;;;;;;5.67;5.00;;;8.50;99.90;;;;;;5002395;28;20497;-59
2022/11/16 04:50:39;;;;;;;7.33;5.20;;;8.60;99.90;;;;;;5008587;28;20472;-59
2022/11/16 04:53:06;;;;;;;7.10;5.10;;;8.50;99.90;;;;;;4986284;28;20448;-60
2022/11/16 04:55:32;;;;;;;8.97;4.93;;;8.50;99.90;;;;;;4999033;28;20470;-60
2022/11/16 04:57:58;;;;;;;7.00;5.37;;;8.50;99.90;;;;;;5005275;28;20517;-60
2022/11/16 05:00:24;;;;;;;7.33;5.30;;;8.50;99.90;;;;;;5002890;28;20522;-60
2022/11/16 05:02:50;;;;;;;5.10;4.40;;;8.50;99.90;;;;;;5006426;28;20803;-59
2022/11/16 05:05:16;;;;;;;7.67;4.90;;;8.50;99.90;;;;;;5006057;28;20438;-60
2022/11/16 05:07:42;;;;;;;5.33;4.80;;;8.50;99.90;;;;;;5010184;28;20196;-59
2022/11/16 05:10:08;;;;;;;6.70;5.10;;;8.50;99.90;;;;;;5002272;28;20825;-59
2022/11/16 05:12:34;;;;;;;8.23;5.33;;;8.50;99.90;;;;;;4979792;28;20529;-59
2022/11/16 05:15:00;;;;;;;12.43;6.00;;;8.50;99.90;;;;;;5007340;28;20608;-59
2022/11/16 05:17:26;;;;;;;6.00;5.20;;;8.40;99.90;;;;;;5001759;28;20731;-60
2022/11/16 05:22:37;;;;;;;6.80;5.07;;;8.40;99.90;;;;;;5008446;28;20442;-60
2022/11/16 05:25:04;;;;;;;6.83;4.90;;;8.40;99.90;;;;;;5008691;28;20443;-59
2022/11/16 05:27:30;;;;;;;6.53;5.13;;;8.40;99.90;;;;;;5009547;28;20701;-59
2022/11/16 05:29:56;;;;;;;8.87;5.27;;;8.40;99.90;;;;;;5004325;28;20439;-60
2022/11/16 05:32:23;;;;;;;8.10;5.80;;;8.40;99.90;;;;;;5003041;28;20427;-59
2022/11/16 05:34:49;;;;;;;7.00;5.17;;;8.40;99.90;;;;;;5009423;28;20705;-59
2022/11/16 05:37:15;;;;;;;7.83;5.67;;;8.40;99.90;;;;;;4991248;28;20443;-59
2022/11/16 05:39:41;;;;;;;7.10;5.40;;;8.40;99.90;;;;;;5006899;28;20195;-60
2022/11/16 05:42:07;;;;;;;6.60;5.60;;;8.40;99.90;;;;;;5003498;28;21150;-60
2022/11/16 05:44:33;;;;;;;6.10;4.70;;;8.30;99.90;;;;;;5007573;28;20620;-60
2022/11/16 05:46:59;;;;;;;7.33;6.30;;;8.30;99.90;;;;;;5002971;28;20490;-59
2022/11/16 05:49:25;;;;;;;13.50;6.07;;;8.30;99.90;;;;;;5011510;28;20950;-60
2022/11/16 05:51:51;;;;;;;8.23;5.90;;;8.30;99.90;;;;;;5008446;28;20439;-62
2022/11/16 05:54:20;;;;;;;8.90;6.47;;;8.30;99.90;;;;;;5009458;28;20277;-61
2022/11/16 05:56:47;;;;;;;8.23;6.33;;;8.30;99.90;;;;;;4994720;28;20639;-60
2022/11/16 05:59:15;;;;;;;10.13;6.43;;;8.30;99.90;;;;;;5007502;28;20851;-60
2022/11/16 06:01:41;;;;;;;8.87;6.80;;;8.30;99.90;;;;;;5009148;28;20443;-60
2022/11/16 06:04:07;;;;;;;11.90;8.37;;;8.30;99.90;;;;;;5005750;28;20403;-60
2022/11/16 06:06:32;;;;;;;9.47;6.47;;;8.20;99.90;;;;;;4996105;28;20451;-60
2022/11/16 06:08:58;;;;;;;8.63;6.67;;;8.20;99.90;;;;;;5004654;28;20662;-59
2022/11/16 06:11:24;;;;;;;8.23;5.83;;;8.20;99.90;;;;;;5008810;28;20235;-60
2022/11/16 06:13:49;;;;;;;10.37;6.27;;;8.20;99.90;;;;;;5010745;28;20207;-60
2022/11/16 06:16:15;;;;;;;8.00;6.00;;;8.20;99.90;;;;;;5004590;28;20200;-60
2022/11/16 06:18:44;;;;;;;8.43;5.87;;;8.10;99.90;;;;;;5006193;28;20200;-60
2022/11/16 06:21:11;;;;;;;7.20;6.10;;;8.10;99.90;;;;;;5005845;28;20275;-60
2022/11/16 06:23:37;;;;;;;7.23;5.67;;;8.10;99.90;;;;;;4994758;28;20909;-59
2022/11/16 06:26:04;;;;;;;6.90;5.50;;;8.10;99.90;;;;;;4997048;28;20485;-59
2022/11/16 06:28:30;;;;;;;8.90;5.97;;;8.10;99.90;;;;;;5011510;28;20422;-60
2022/11/16 06:30:56;;;;;;;7.97;5.80;;;8.10;99.90;;;;;;5005483;28;20496;-61
2022/11/16 06:33:22;;;;;;;8.97;6.00;;;8.00;99.90;;;;;;5009248;28;21033;-61
2022/11/16 06:35:47;;;;;;;10.30;6.20;;;8.00;99.90;;;;;;5009035;28;20601;-60
2022/11/16 06:38:17;;;;;;;9.50;6.77;;;7.90;99.90;;;;;;5011090;28;20809;-60
2022/11/16 06:40:50;;;;;;;9.17;5.87;;;7.90;99.90;;;;;;4993752;28;20523;-60
2022/11/16 06:43:16;;;;;;;9.47;6.17;;;7.90;99.90;;;;;;5009526;28;20942;-60
2022/11/16 06:45:42;;;;;;;23.90;13.37;;;7.80;99.90;;;;;;4991503;28;20442;-60
2022/11/16 06:48:07;;;;;;;50.77;25.80;;;7.80;99.90;;;;;;5012363;28;20430;-60
2022/11/16 06:50:33;;;;;;;22.60;13.27;;;7.70;99.90;;;;;;5012785;28;20204;-60
2022/11/16 06:52:59;;;;;;;43.67;17.00;;;7.70;99.90;;;;;;5004444;28;20187;-60
2022/11/16 06:55:26;;;;;;;14.43;8.40;;;7.70;99.90;;;;;;5009130;28;20518;-60
2022/11/16 06:57:52;;;;;;;10.17;5.60;;;7.70;99.90;;;;;;5004391;28;20973;-60
2022/11/16 07:00:18;;;;;;;6.63;4.77;;;7.70;99.90;;;;;;5009153;28;20438;-60
2022/11/16 07:02:44;;;;;;;8.97;6.53;;;7.70;99.90;;;;;;5013607;28;20196;-60
2022/11/16 07:05:09;;;;;;;7.70;5.63;;;7.70;99.90;;;;;;5012162;28;20339;-60
2022/11/16 07:07:35;;;;;;;16.40;7.23;;;7.70;99.90;;;;;;5002054;28;20279;-60
2022/11/16 07:10:01;;;;;;;9.13;5.60;;;7.70;99.90;;;;;;5008218;28;20308;-60
2022/11/16 07:12:26;;;;;;;10.07;6.50;;;7.70;99.90;;;;;;5000193;28;20204;-60
2022/11/16 07:14:52;;;;;;;11.97;7.30;;;7.70;99.90;;;;;;5009859;28;20728;-60
2022/11/16 07:17:18;;;;;;;9.50;6.33;;;7.70;99.90;;;;;;5008350;28;20650;-60
2022/11/16 07:19:43;;;;;;;10.67;6.47;;;7.70;99.90;;;;;;4996737;28;20211;-60
2022/11/16 07:22:09;;;;;;;7.87;6.03;;;7.70;99.90;;;;;;5006672;28;20173;-61
2022/11/16 07:24:34;;;;;;;9.67;5.90;;;7.70;99.90;;;;;;5011942;28;20235;-60
2022/11/16 07:27:00;;;;;;;8.30;6.30;;;7.60;99.90;;;;;;5008577;28;20228;-60
2022/11/16 07:29:25;;;;;;;7.50;5.73;;;7.70;99.90;;;;;;5002325;28;20177;-60
2022/11/16 07:31:51;;;;;;;10.33;7.07;;;7.60;99.90;;;;;;5010189;28;20180;-63
2022/11/16 07:34:17;;;;;;;9.13;6.03;;;7.70;99.90;;;;;;5011790;28;20193;-59
2022/11/16 07:36:43;;;;;;;7.97;5.50;;;7.80;99.90;;;;;;5007522;28;20197;-61
2022/11/16 07:39:09;;;;;;;10.13;5.27;;;7.80;99.90;;;;;;5005125;28;20172;-61
2022/11/16 07:41:35;;;;;;;8.37;5.30;;;7.90;99.90;;;;;;5010375;28;20415;-61
2022/11/16 07:44:01;;;;;;;10.37;5.93;;;7.90;99.90;;;;;;5005491;28;20423;-61
2022/11/16 07:46:27;;;;;;;14.77;8.53;;;7.90;99.90;;;;;;5002010;28;20474;-60
2022/11/16 07:48:52;;;;;;;32.13;16.60;;;7.90;99.90;;;;;;5010547;28;20172;-60
2022/11/16 07:51:19;;;;;;;15.03;7.70;;;8.00;99.90;;;;;;5011734;28;20418;-59
2022/11/16 07:53:44;;;;;;;14.17;8.10;;;8.00;99.90;;;;;;5006938;28;20188;-60
2022/11/16 07:56:11;;;;;;;10.70;7.70;;;8.00;99.90;;;;;;5002920;28;20474;-60
2022/11/16 07:58:38;;;;;;;18.47;7.70;;;8.00;99.90;;;;;;5011158;28;20219;-60
2022/11/16 08:01:11;;;;;;;13.50;8.10;;;8.00;99.90;;;;;;5005541;28;20579;-60
2022/11/16 08:03:38;;;;;;;12.50;8.50;;;8.00;99.90;;;;;;5008673;28;20427;-60
2022/11/16 08:06:06;;;;;;;12.17;7.70;;;8.00;99.90;;;;;;5010715;28;20443;-60
2022/11/16 08:08:32;;;;;;;11.47;7.50;;;8.00;99.90;;;;;;5010925;28;20523;-60
2022/11/16 08:11:02;;;;;;;11.30;7.77;;;7.90;99.90;;;;;;5002991;28;20507;-60
2022/11/16 08:13:30;;;;;;;11.43;6.90;;;7.90;99.90;;;;;;5002610;28;20310;-60
2022/11/16 08:16:01;;;;;;;7.93;5.97;;;7.90;99.90;;;;;;5005300;28;20879;-60
2022/11/16 08:18:28;;;;;;;6.60;4.70;;;7.90;99.90;;;;;;5007795;28;20435;-60
2022/11/16 08:20:53;;;;;;;5.40;3.80;;;7.90;99.90;;;;;;5005613;28;20439;-59
2022/11/16 08:23:19;;;;;;;4.90;3.50;;;7.90;99.90;;;;;;5008451;28;20438;-60
2022/11/16 08:25:44;;;;;;;5.03;3.60;;;7.90;99.90;;;;;;4999852;28;20187;-60
2022/11/16 08:28:11;;;;;;;5.53;3.47;;;7.90;99.90;;;;;;5004426;28;20713;-60
2022/11/16 08:30:40;;;;;;;5.90;4.40;;;7.90;99.90;;;;;;5004170;28;20183;-60
2022/11/16 08:33:08;;;;;;;8.77;4.97;;;8.00;99.90;;;;;;5001762;28;20428;-60
2022/11/16 08:35:35;;;;;;;11.30;5.70;;;8.10;99.90;;;;;;5001240;28;20460;-60
2022/11/16 08:38:01;;;;;;;20.40;6.00;;;8.10;99.90;;;;;;5002122;28;20471;-60
2022/11/16 08:40:27;;;;;;;7.40;5.70;;;8.20;99.90;;;;;;5004452;28;20545;-60
2022/11/16 08:42:55;;;;;;;8.50;6.10;;;8.30;99.90;;;;;;4997529;28;20184;-60
2022/11/16 08:45:22;;;;;;;11.13;6.83;;;8.30;99.90;;;;;;5003122;28;20428;-61
2022/11/16 08:47:48;;;;;;;9.17;6.80;;;8.30;99.90;;;;;;5009478;28;20452;-59
2022/11/16 08:50:15;;;;;;;10.73;6.93;;;8.40;99.90;;;;;;5006070;28;20427;-59
2022/11/16 08:52:40;;;;;;;9.77;6.33;;;8.50;99.90;;;;;;5008704;28;20290;-60
2022/11/16 08:55:07;;;;;;;9.90;6.63;;;8.50;99.90;;;;;;5002674;28;21108;-60
2022/11/16 08:57:32;;;;;;;9.30;6.90;;;8.60;99.90;;;;;;5004965;28;20239;-60
2022/11/16 08:59:58;;;;;;;12.53;7.10;;;8.70;99.90;;;;;;5005938;28;20455;-60
2022/11/16 09:02:24;;;;;;;8.23;6.23;;;8.80;99.90;;;;;;5005004;28;20208;-61
2022/11/16 09:04:53;;;;;;;7.83;4.73;;;8.90;99.90;;;;;;5003827;28;20215;-60
2022/11/16 09:07:19;;;;;;;5.30;3.80;;;9.00;99.90;;;;;;5008402;28;20459;-60
2022/11/16 09:09:45;;;;;;;6.27;3.70;;;9.00;99.90;;;;;;5009964;28;20438;-60
2022/11/16 09:12:11;;;;;;;7.30;4.20;;;9.10;99.90;;;;;;5005343;28;20443;-60
2022/11/16 09:14:36;;;;;;;6.83;2.50;;;9.20;99.90;;;;;;5005431;28;20617;-60
2022/11/16 09:17:02;;;;;;;4.43;2.60;;;9.30;99.90;;;;;;5008790;28;20211;-60
2022/11/16 09:19:28;;;;;;;6.43;2.20;;;9.40;99.90;;;;;;4999481;28;20213;-59
2022/11/16 09:21:53;;;;;;;3.70;2.40;;;9.50;99.90;;;;;;5004192;28;20998;-60
2022/11/16 09:24:19;;;;;;;6.17;1.50;;;9.60;99.90;;;;;;5007593;28;20190;-60
2022/11/16 09:26:44;;;;;;;4.83;1.83;;;9.70;99.90;;;;;;5006607;28;20343;-61
2022/11/16 09:29:12;;;;;;;2.80;1.87;;;9.70;99.90;;;;;;5006040;28;20675;-60
2022/11/16 09:31:38;;;;;;;1.20;1.10;;;9.80;99.90;;;;;;5006973;28;20215;-62
2022/11/16 09:34:04;;;;;;;1.97;1.27;;;9.80;99.90;;;;;;5008613;28;20411;-60
2022/11/16 09:36:30;;;;;;;2.83;1.40;;;9.90;99.90;;;;;;5003349;28;20456;-61
2022/11/16 09:38:56;;;;;;;2.50;1.53;;;10.00;99.90;;;;;;5003630;28;20168;-61
2022/11/16 09:41:59;;;;;;;2.83;1.10;;;10.10;99.90;;;;;;4996985;28;20185;-60
2022/11/16 09:44:36;;;;;;;5.33;1.20;;;10.20;99.90;;;;;;4974850;28;20435;-60
2022/11/16 09:47:06;;;;;;;1.93;1.10;;;10.30;99.90;;;;;;5002123;28;20474;-60
2022/11/16 09:49:38;;;;;;;4.40;1.50;;;10.40;99.90;;;;;;5005329;28;20443;-61
2022/11/16 09:52:09;;;;;;;3.93;1.37;;;10.50;99.90;;;;;;5007606;28;20690;-60
2022/11/16 09:54:39;;;;;;;1.50;1.10;;;10.50;99.90;;;;;;5008820;28;20459;-60
2022/11/16 09:57:09;;;;;;;8.00;1.80;;;10.50;99.90;;;;;;5001031;28;20550;-60
2022/11/16 09:59:43;;;;;;;2.70;1.20;;;10.50;99.90;;;;;;5008069;28;20428;-61
2022/11/16 10:02:23;;;;;;;6.10;1.20;;;10.50;99.90;;;;;;5006091;28;20427;-60
2022/11/16 10:05:06;;;;;;;3.00;1.30;;;10.50;99.90;;;;;;5002221;28;20426;-60
2022/11/16 10:07:48;;;;;;;1.10;1.00;;;10.50;99.90;;;;;;5006939;28;20877;-60
2022/11/16 10:10:26;;;;;;;2.93;1.27;;;10.60;99.90;;;;;;5005822;28;20446;-60
2022/11/16 10:13:41;;;;;;;2.87;1.40;;;10.60;99.90;;;;;;5003374;28;20522;-60
2022/11/16 10:16:13;;;;;;;3.27;1.27;;;10.70;99.90;;;;;;4961791;28;20484;-60
2022/11/16 10:19:02;;;;;;;4.90;1.20;;;10.80;99.90;;;;;;5004861;28;20429;-60
2022/11/16 10:21:51;;;;;;;5.00;1.30;;;10.90;99.90;;;;;;5006146;28;20443;-60
2022/11/16 10:25:08;;;;;;;2.30;1.20;;;11.00;99.90;;;;;;5006754;28;20412;-60
2022/11/16 10:27:54;;;;;;;4.17;1.20;;;10.90;99.60;;;;;;4950525;28;20523;-60
2022/11/16 10:30:21;;;;;;;2.97;1.00;;;10.90;96.70;;;;;;5007722;28;20505;-61
2022/11/16 10:33:11;;;;;;;5.23;1.20;;;10.80;99.90;;;;;;5012450;28;20407;-60
2022/11/16 10:35:39;;;;;;;1.90;1.20;;;10.70;99.20;;;;;;5009735;28;22076;-60
2022/11/16 10:38:16;;;;;;;2.93;1.30;;;10.60;99.90;;;;;;5000059;28;20474;-60
2022/11/16 10:40:45;;;;;;;2.40;1.10;;;10.60;99.90;;;;;;5009441;28;20953;-59
2022/11/16 10:43:13;;;;;;;2.40;1.30;;;10.60;99.90;;;;;;5012488;28;20416;-60
2022/11/16 10:45:42;;;;;;;3.37;1.33;;;10.60;99.90;;;;;;5007161;28;20442;-60
2022/11/16 10:48:36;;;;;;;3.10;1.30;;;10.60;99.90;;;;;;5009146;28;21159;-60
2022/11/16 10:51:03;;;;;;;1.83;1.20;;;10.70;99.90;;;;;;5005723;28;20553;-60
2022/11/16 10:53:38;;;;;;;4.63;1.50;;;10.80;99.90;;;;;;4988775;28;20459;-60
2022/11/16 10:56:21;;;;;;;2.30;1.40;;;10.90;99.10;;;;;;5000630;28;20805;-60
2022/11/16 10:59:05;;;;;;;1.70;1.30;;;11.00;99.90;;;;;;4999697;28;20431;-60
2022/11/16 11:01:32;;;;;;;1.23;0.90;;;11.20;99.00;;;;;;5011072;28;21064;-61
2022/11/16 11:04:19;;;;;;;4.23;0.90;;;11.40;92.70;;;;;;5010173;28;20430;-60
2022/11/16 11:06:48;;;;;;;2.53;1.13;;;11.60;91.10;;;;;;5004728;28;20459;-60
2022/11/16 11:09:26;;;;;;;3.10;1.40;;;11.60;93.00;;;;;;5008861;28;20427;-60
2022/11/16 11:15:00;;;;;;;1.20;0.93;;;11.90;88.40;;;;;;5009388;28;21083;-60
2022/11/16 11:17:27;;;;;;;4.83;1.07;;;12.10;85.20;;;;;;5002342;28;20594;-61
2022/11/16 11:20:16;;;;;;;11.43;5.00;;;12.20;79.20;;;;;;4991115;28;20854;-60
2022/11/16 11:22:56;;;;;;;4.37;1.40;;;12.40;80.30;;;;;;4996120;28;20431;-61
2022/11/16 11:25:32;;;;;;;4.50;1.30;;;12.40;74.90;;;;;;5007885;28;20456;-60
2022/11/16 11:28:18;;;;;;;2.70;1.00;;;12.50;76.30;;;;;;5005930;28;20457;-60
2022/11/16 11:31:02;;;;;;;1.87;1.20;;;12.70;72.90;;;;;;5003834;28;20412;-61
2022/11/16 11:33:47;;;;;;;6.50;1.70;;;12.80;72.00;;;;;;5011905;28;20403;-60
2022/11/16 11:36:27;;;;;;;3.13;1.83;;;12.90;70.10;;;;;;5002111;28;20563;-60
2022/11/16 11:38:58;;;;;;;3.37;1.40;;;13.00;71.50;;;;;;5010283;28;20431;-61
2022/11/16 11:41:26;;;;;;;2.33;1.27;;;13.10;68.60;;;;;;5007077;28;20452;-60
2022/11/16 11:44:03;;;;;;;3.27;1.37;;;13.10;67.80;;;;;;5008329;28;20461;-60
2022/11/16 11:46:35;;;;;;;2.20;0.90;;;13.00;64.20;;;;;;5009131;28;20446;-60
2022/11/16 11:49:15;;;;;;;3.57;1.20;;;12.80;62.60;;;;;;5009943;28;20462;-60
2022/11/16 11:51:44;;;;;;;4.73;1.10;;;12.50;63.70;;;;;;5003373;28;20423;-61
2022/11/16 11:54:35;;;;;;;2.63;1.00;;;12.30;64.70;;;;;;5007696;28;20437;-60
2022/11/16 11:57:03;;;;;;;3.47;1.57;;;11.90;66.70;;;;;;4998589;28;20539;-61
2022/11/16 11:59:29;;;;;;;4.13;2.00;;;11.70;69.60;;;;;;4987353;28;20957;-60
2022/11/16 12:02:16;;;;;;;4.13;1.10;;;11.50;75.70;;;;;;5007592;28;21068;-60
2022/11/16 12:04:44;;;;;;;2.33;1.30;;;11.40;77.80;;;;;;4995259;28;20450;-61
2022/11/16 12:07:34;;;;;;;5.03;1.30;;;11.30;77.90;;;;;;5010977;28;20978;-60
2022/11/16 12:10:30;;;;;;;4.70;1.13;;;11.20;81.90;;;;;;5001762;28;20601;-60
2022/11/16 12:13:31;;;;;;;2.17;1.00;;;11.10;83.00;;;;;;4986644;28;20427;-61
2022/11/16 12:16:11;;;;;;;3.57;1.10;;;11.00;82.50;;;;;;5005294;28;20998;-60
2022/11/16 12:18:49;;;;;;;3.40;1.20;;;11.00;84.90;;;;;;5001803;28;20450;-60
2022/11/16 12:21:46;;;;;;;5.20;1.50;;;11.00;87.10;;;;;;5008711;28;20510;-61
2022/11/16 12:24:18;;;;;;;4.40;1.33;;;11.10;86.20;;;;;;4990763;28;20615;-60
2022/11/16 12:27:18;;;;;;;7.97;1.20;;;11.10;85.50;;;;;;5004814;28;20454;-61
2022/11/16 12:30:00;;;;;;;4.20;1.00;;;11.10;85.60;;;;;;5009555;28;20459;-60
2022/11/16 12:32:54;;;;;;;5.00;1.27;;;11.10;87.00;;;;;;5008240;28;20996;-60
2022/11/16 12:35:28;;;;;;;5.47;1.40;;;11.20;87.60;;;;;;5002005;28;20455;-60
2022/11/16 12:37:56;;;;;;;4.47;1.40;;;11.10;88.20;;;;;;4996576;28;20447;-61
2022/11/16 12:40:59;;;;;;;3.13;1.40;;;11.20;85.40;;;;;;5007071;28;20435;-60
2022/11/16 12:43:34;;;;;;;4.63;1.30;;;11.20;84.20;;;;;;4995284;28;20957;-61
2022/11/16 12:46:21;;;;;;;2.30;1.40;;;11.20;88.20;;;;;;5010380;28;21106;-60
2022/11/16 12:49:04;;;;;;;2.30;1.20;;;11.20;88.50;;;;;;5008850;28;20458;-60
2022/11/16 12:52:01;;;;;;;4.20;1.20;;;11.20;85.70;;;;;;4992967;28;20465;-60
2022/11/16 12:55:02;;;;;;;4.47;1.30;;;11.20;86.90;;;;;;5002380;28;20781;-61
2022/11/16 12:57:47;;;;;;;4.43;1.20;;;11.10;87.40;;;;;;5004854;28;20455;-60
2022/11/16 13:00:18;;;;;;;4.07;1.30;;;11.10;91.60;;;;;;5004006;28;20549;-60
2022/11/16 13:03:07;;;;;;;3.77;1.40;;;11.00;88.80;;;;;;5008270;28;20454;-60
2022/11/16 13:05:41;;;;;;;2.13;1.10;;;11.00;87.40;;;;;;5009808;28;20485;-60
2022/11/16 13:08:34;;;;;;;3.50;1.43;;;11.10;90.50;;;;;;4999965;28;20435;-60
2022/11/16 13:11:17;;;;;;;4.67;1.17;;;11.30;89.10;;;;;;5004025;28;20439;-60
2022/11/16 13:13:44;;;;;;;2.73;1.00;;;11.50;83.80;;;;;;5009556;28;20441;-61
2022/11/16 13:16:15;;;;;;;3.33;1.10;;;11.80;81.60;;;;;;5062191;22;20535;-56
2022/11/16 13:18:42;;;;;;;5.33;1.30;;;12.10;79.10;;;;;;5049479;28;20508;-55
2022/11/16 13:21:29;;;;;;;1.47;1.20;;;12.40;74.50;;;;;;5049067;28;20429;-58
2022/11/16 13:24:19;;;;;;;5.27;1.23;;;12.70;72.50;;;;;;5040079;28;20484;-57
2022/11/16 13:27:04;;;;;;;1.90;1.30;;;12.90;70.30;;;;;;5051615;28;20453;-57
2022/11/16 13:29:45;;;;;;;2.40;1.17;;;13.20;65.60;;;;;;5042206;28;20422;-57
2022/11/16 13:32:23;;;;;;;3.17;1.10;;;13.20;65.80;;;;;;5035001;28;20429;-58
2022/11/16 13:34:50;;;;;;;4.30;1.63;;;13.20;62.50;;;;;;5038466;28;20453;-53
2022/11/16 13:37:37;;;;;;;2.17;1.10;;;13.30;63.00;;;;;;5047379;28;20430;-58
2022/11/16 13:40:03;;;;;;;1.43;0.90;;;13.40;64.00;;;;;;5047817;28;20427;-55
2022/11/16 13:42:57;;;;;;;0.80;0.80;;;13.30;61.50;;;;;;5044121;28;20848;-60
2022/11/16 13:45:23;;;;;;;4.00;1.40;;;13.20;62.50;;;;;;5036844;28;20293;-56
2022/11/16 13:48:00;;;;;;;5.20;1.43;;;13.30;63.40;;;;;;5040077;28;20429;-57
2022/11/16 13:50:33;;;;;;;2.90;1.10;;;13.40;62.10;;;;;;5036548;28;20421;-57
2022/11/16 13:53:05;;;;;;;1.73;1.27;;;13.50;60.70;;;;;;5042350;28;20444;-59
2022/11/16 13:55:32;;;;;;;3.37;1.00;;;13.40;60.40;;;;;;5046232;28;20477;-56